sensor_id;sensor_type;location;lat;lon;timestamp;P1;durP1;ratioP1;P2;durP2;ratioP2
19505;SDS011;9894;50.852;-0.140;2022-07-19T00:02:04;11.27;;;5.60;;
19505;SDS011;9894;50.852;-0.140;2022-07-19T00:04:31;6.32;;;5.72;;
19505;SDS011;9894;50.852;-0.140;2022-07-19T00:06:57;6.57;;;5.85;;
19505;SDS011;9894;50.852;-0.140;2022-07-19T00:09:24;9.48;;;5.93;;
19505;SDS011;9894;50.852;-0.140;2022-07-19T00:11:50;8.52;;;5.85;;
19505;SDS011;9894;50.852;-0.140;2022-07-19T00:14:17;6.43;;;5.80;;
19505;SDS011;9894;50.852;-0.140;2022-07-19T00:16:43;11.30;;;6.30;;
19505;SDS011;9894;50.852;-0.140;2022-07-19T00:19:09;7.13;;;5.85;;
19505;SDS011;9894;50.852;-0.140;2022-07-19T00:21:35;6.65;;;5.63;;
19505;SDS011;9894;50.852;-0.140;2022-07-19T00:24:01;6.50;;;5.80;;
19505;SDS011;9894;50.852;-0.140;2022-07-19T00:26:28;7.00;;;5.57;;
19505;SDS011;9894;50.852;-0.140;2022-07-19T00:28:54;6.47;;;5.88;;
19505;SDS011;9894;50.852;-0.140;2022-07-19T00:31:21;6.90;;;5.80;;
19505;SDS011;9894;50.852;-0.140;2022-07-19T00:33:48;11.45;;;6.03;;
19505;SDS011;9894;50.852;-0.140;2022-07-19T00:36:14;7.10;;;6.10;;
19505;SDS011;9894;50.852;-0.140;2022-07-19T00:38:41;10.38;;;5.95;;
19505;SDS011;9894;50.852;-0.140;2022-07-19T00:41:07;8.43;;;6.00;;
19505;SDS011;9894;50.852;-0.140;2022-07-19T00:43:33;6.30;;;5.70;;
19505;SDS011;9894;50.852;-0.140;2022-07-19T00:45:59;6.50;;;5.85;;
19505;SDS011;9894;50.852;-0.140;2022-07-19T00:48:25;7.85;;;5.72;;
19505;SDS011;9894;50.852;-0.140;2022-07-19T00:50:51;7.38;;;5.85;;
19505;SDS011;9894;50.852;-0.140;2022-07-19T00:53:18;7.38;;;5.80;;
19505;SDS011;9894;50.852;-0.140;2022-07-19T00:55:44;6.60;;;5.50;;
19505;SDS011;9894;50.852;-0.140;2022-07-19T00:58:11;6.97;;;6.20;;
19505;SDS011;9894;50.852;-0.140;2022-07-19T01:00:39;7.70;;;5.72;;
19505;SDS011;9894;50.852;-0.140;2022-07-19T01:03:08;7.50;;;5.57;;
19505;SDS011;9894;50.852;-0.140;2022-07-19T01:05:34;6.00;;;5.50;;
19505;SDS011;9894;50.852;-0.140;2022-07-19T01:08:01;7.28;;;6.00;;
19505;SDS011;9894;50.852;-0.140;2022-07-19T01:10:27;12.50;;;6.30;;
19505;SDS011;9894;50.852;-0.140;2022-07-19T01:12:55;5.95;;;5.45;;
19505;SDS011;9894;50.852;-0.140;2022-07-19T01:15:23;7.93;;;5.70;;
19505;SDS011;9894;50.852;-0.140;2022-07-19T01:17:50;8.75;;;5.60;;
19505;SDS011;9894;50.852;-0.140;2022-07-19T01:20:17;6.47;;;5.70;;
19505;SDS011;9894;50.852;-0.140;2022-07-19T01:22:44;9.68;;;6.28;;
19505;SDS011;9894;50.852;-0.140;2022-07-19T01:25:10;7.18;;;5.50;;
19505;SDS011;9894;50.852;-0.140;2022-07-19T01:27:37;6.85;;;5.70;;
19505;SDS011;9894;50.852;-0.140;2022-07-19T01:30:09;8.23;;;5.75;;
19505;SDS011;9894;50.852;-0.140;2022-07-19T01:32:35;6.95;;;5.80;;
19505;SDS011;9894;50.852;-0.140;2022-07-19T01:35:01;8.07;;;5.70;;
19505;SDS011;9894;50.852;-0.140;2022-07-19T01:37:27;7.53;;;5.57;;
19505;SDS011;9894;50.852;-0.140;2022-07-19T01:39:53;6.13;;;5.47;;
19505;SDS011;9894;50.852;-0.140;2022-07-19T01:42:21;7.00;;;5.65;;
19505;SDS011;9894;50.852;-0.140;2022-07-19T01:44:48;7.53;;;5.88;;
19505;SDS011;9894;50.852;-0.140;2022-07-19T01:47:15;7.53;;;5.72;;
19505;SDS011;9894;50.852;-0.140;2022-07-19T01:49:41;8.55;;;5.65;;
19505;SDS011;9894;50.852;-0.140;2022-07-19T01:52:07;8.50;;;6.07;;
19505;SDS011;9894;50.852;-0.140;2022-07-19T01:54:33;6.28;;;5.55;;
19505;SDS011;9894;50.852;-0.140;2022-07-19T01:56:59;8.45;;;5.90;;
19505;SDS011;9894;50.852;-0.140;2022-07-19T01:59:25;10.45;;;6.00;;
19505;SDS011;9894;50.852;-0.140;2022-07-19T02:01:51;7.40;;;5.93;;
19505;SDS011;9894;50.852;-0.140;2022-07-19T02:04:17;6.22;;;5.63;;
19505;SDS011;9894;50.852;-0.140;2022-07-19T02:06:43;8.60;;;5.78;;
19505;SDS011;9894;50.852;-0.140;2022-07-19T02:09:09;7.95;;;5.38;;
19505;SDS011;9894;50.852;-0.140;2022-07-19T02:11:36;6.78;;;5.57;;
19505;SDS011;9894;50.852;-0.140;2022-07-19T02:14:02;7.30;;;5.65;;
19505;SDS011;9894;50.852;-0.140;2022-07-19T02:16:28;8.50;;;5.90;;
19505;SDS011;9894;50.852;-0.140;2022-07-19T02:18:54;7.05;;;5.57;;
19505;SDS011;9894;50.852;-0.140;2022-07-19T02:21:21;6.53;;;5.40;;
19505;SDS011;9894;50.852;-0.140;2022-07-19T02:23:47;6.97;;;5.50;;
19505;SDS011;9894;50.852;-0.140;2022-07-19T02:26:13;6.88;;;5.55;;
19505;SDS011;9894;50.852;-0.140;2022-07-19T02:28:39;7.47;;;5.60;;
19505;SDS011;9894;50.852;-0.140;2022-07-19T02:31:05;6.47;;;5.40;;
19505;SDS011;9894;50.852;-0.140;2022-07-19T02:33:31;8.18;;;5.70;;
19505;SDS011;9894;50.852;-0.140;2022-07-19T02:35:57;7.10;;;5.25;;
19505;SDS011;9894;50.852;-0.140;2022-07-19T02:38:23;7.18;;;5.18;;
19505;SDS011;9894;50.852;-0.140;2022-07-19T02:40:49;6.97;;;5.32;;
19505;SDS011;9894;50.852;-0.140;2022-07-19T02:43:16;6.63;;;5.50;;
19505;SDS011;9894;50.852;-0.140;2022-07-19T02:45:42;6.43;;;5.68;;
19505;SDS011;9894;50.852;-0.140;2022-07-19T02:48:08;9.00;;;5.63;;
19505;SDS011;9894;50.852;-0.140;2022-07-19T02:50:34;6.13;;;5.53;;
19505;SDS011;9894;50.852;-0.140;2022-07-19T02:53:01;5.82;;;5.10;;
19505;SDS011;9894;50.852;-0.140;2022-07-19T02:55:27;8.43;;;5.50;;
19505;SDS011;9894;50.852;-0.140;2022-07-19T02:57:53;7.93;;;5.30;;
19505;SDS011;9894;50.852;-0.140;2022-07-19T03:00:19;6.10;;;5.50;;
19505;SDS011;9894;50.852;-0.140;2022-07-19T03:02:45;7.95;;;5.55;;
19505;SDS011;9894;50.852;-0.140;2022-07-19T03:05:12;6.40;;;5.40;;
19505;SDS011;9894;50.852;-0.140;2022-07-19T03:07:38;6.25;;;5.03;;
19505;SDS011;9894;50.852;-0.140;2022-07-19T03:10:04;7.53;;;5.30;;
19505;SDS011;9894;50.852;-0.140;2022-07-19T03:12:30;7.00;;;5.35;;
19505;SDS011;9894;50.852;-0.140;2022-07-19T03:14:56;6.25;;;5.35;;
19505;SDS011;9894;50.852;-0.140;2022-07-19T03:17:22;7.47;;;5.47;;
19505;SDS011;9894;50.852;-0.140;2022-07-19T03:19:48;5.70;;;5.20;;
19505;SDS011;9894;50.852;-0.140;2022-07-19T03:22:15;6.35;;;5.20;;
19505;SDS011;9894;50.852;-0.140;2022-07-19T03:24:41;6.63;;;5.53;;
19505;SDS011;9894;50.852;-0.140;2022-07-19T03:27:07;8.95;;;5.30;;
19505;SDS011;9894;50.852;-0.140;2022-07-19T03:29:33;5.50;;;5.00;;
19505;SDS011;9894;50.852;-0.140;2022-07-19T03:31:59;6.57;;;5.47;;
19505;SDS011;9894;50.852;-0.140;2022-07-19T03:34:25;6.10;;;5.50;;
19505;SDS011;9894;50.852;-0.140;2022-07-19T03:36:53;6.10;;;5.50;;
19505;SDS011;9894;50.852;-0.140;2022-07-19T03:39:19;9.57;;;5.50;;
19505;SDS011;9894;50.852;-0.140;2022-07-19T03:41:45;6.18;;;5.40;;
19505;SDS011;9894;50.852;-0.140;2022-07-19T03:44:11;10.00;;;5.30;;
19505;SDS011;9894;50.852;-0.140;2022-07-19T03:46:38;5.80;;;5.20;;
19505;SDS011;9894;50.852;-0.140;2022-07-19T03:49:04;6.40;;;5.70;;
19505;SDS011;9894;50.852;-0.140;2022-07-19T03:51:30;8.10;;;5.22;;
19505;SDS011;9894;50.852;-0.140;2022-07-19T03:53:56;9.02;;;5.30;;
19505;SDS011;9894;50.852;-0.140;2022-07-19T03:56:22;7.40;;;5.65;;
19505;SDS011;9894;50.852;-0.140;2022-07-19T03:58:48;13.02;;;5.68;;
19505;SDS011;9894;50.852;-0.140;2022-07-19T04:01:15;6.95;;;5.50;;
19505;SDS011;9894;50.852;-0.140;2022-07-19T04:03:41;7.97;;;5.57;;
19505;SDS011;9894;50.852;-0.140;2022-07-19T04:06:09;6.40;;;5.10;;
19505;SDS011;9894;50.852;-0.140;2022-07-19T04:08:35;7.80;;;5.90;;
19505;SDS011;9894;50.852;-0.140;2022-07-19T04:11:02;7.68;;;5.85;;
19505;SDS011;9894;50.852;-0.140;2022-07-19T04:13:28;7.68;;;5.47;;
19505;SDS011;9894;50.852;-0.140;2022-07-19T04:15:54;7.25;;;6.22;;
19505;SDS011;9894;50.852;-0.140;2022-07-19T04:18:21;6.47;;;5.55;;
19505;SDS011;9894;50.852;-0.140;2022-07-19T04:20:47;9.23;;;5.50;;
19505;SDS011;9894;50.852;-0.140;2022-07-19T04:23:13;8.82;;;5.80;;
19505;SDS011;9894;50.852;-0.140;2022-07-19T04:25:39;9.07;;;5.72;;
19505;SDS011;9894;50.852;-0.140;2022-07-19T04:28:05;6.15;;;5.55;;
19505;SDS011;9894;50.852;-0.140;2022-07-19T04:30:32;6.20;;;5.60;;
19505;SDS011;9894;50.852;-0.140;2022-07-19T04:32:58;12.57;;;6.20;;
19505;SDS011;9894;50.852;-0.140;2022-07-19T04:35:24;9.05;;;5.63;;
19505;SDS011;9894;50.852;-0.140;2022-07-19T04:37:51;12.10;;;6.40;;
19505;SDS011;9894;50.852;-0.140;2022-07-19T04:40:17;10.68;;;6.32;;
19505;SDS011;9894;50.852;-0.140;2022-07-19T04:42:43;8.70;;;6.60;;
19505;SDS011;9894;50.852;-0.140;2022-07-19T04:45:09;6.70;;;6.07;;
19505;SDS011;9894;50.852;-0.140;2022-07-19T04:47:35;6.45;;;5.50;;
19505;SDS011;9894;50.852;-0.140;2022-07-19T04:50:02;7.70;;;5.40;;
19505;SDS011;9894;50.852;-0.140;2022-07-19T04:52:28;7.55;;;6.00;;
19505;SDS011;9894;50.852;-0.140;2022-07-19T04:54:55;7.53;;;5.53;;
19505;SDS011;9894;50.852;-0.140;2022-07-19T04:57:21;6.78;;;6.00;;
19505;SDS011;9894;50.852;-0.140;2022-07-19T04:59:47;8.52;;;6.00;;
19505;SDS011;9894;50.852;-0.140;2022-07-19T05:02:13;9.35;;;6.78;;
19505;SDS011;9894;50.852;-0.140;2022-07-19T05:04:40;6.55;;;5.43;;
19505;SDS011;9894;50.852;-0.140;2022-07-19T05:07:06;6.28;;;5.72;;
19505;SDS011;9894;50.852;-0.140;2022-07-19T05:09:33;6.68;;;6.07;;
19505;SDS011;9894;50.852;-0.140;2022-07-19T05:11:59;6.13;;;5.15;;
19505;SDS011;9894;50.852;-0.140;2022-07-19T05:14:25;6.53;;;5.70;;
19505;SDS011;9894;50.852;-0.140;2022-07-19T05:16:51;8.40;;;5.40;;
19505;SDS011;9894;50.852;-0.140;2022-07-19T05:19:17;7.88;;;5.10;;
19505;SDS011;9894;50.852;-0.140;2022-07-19T05:21:44;7.82;;;5.00;;
19505;SDS011;9894;50.852;-0.140;2022-07-19T05:24:10;5.32;;;4.82;;
19505;SDS011;9894;50.852;-0.140;2022-07-19T05:26:36;7.25;;;5.80;;
19505;SDS011;9894;50.852;-0.140;2022-07-19T05:29:03;5.40;;;4.90;;
19505;SDS011;9894;50.852;-0.140;2022-07-19T05:31:29;7.75;;;5.38;;
19505;SDS011;9894;50.852;-0.140;2022-07-19T05:33:55;6.93;;;5.45;;
19505;SDS011;9894;50.852;-0.140;2022-07-19T05:36:21;8.63;;;5.90;;
19505;SDS011;9894;50.852;-0.140;2022-07-19T05:38:47;7.22;;;5.38;;
19505;SDS011;9894;50.852;-0.140;2022-07-19T05:41:13;6.53;;;5.88;;
19505;SDS011;9894;50.852;-0.140;2022-07-19T05:43:41;6.65;;;5.78;;
19505;SDS011;9894;50.852;-0.140;2022-07-19T05:46:07;8.70;;;5.55;;
19505;SDS011;9894;50.852;-0.140;2022-07-19T05:48:34;9.25;;;5.10;;
19505;SDS011;9894;50.852;-0.140;2022-07-19T05:51:00;6.47;;;5.20;;
19505;SDS011;9894;50.852;-0.140;2022-07-19T05:53:27;9.27;;;5.68;;
19505;SDS011;9894;50.852;-0.140;2022-07-19T05:55:53;8.13;;;5.35;;
19505;SDS011;9894;50.852;-0.140;2022-07-19T05:58:19;9.40;;;5.80;;
19505;SDS011;9894;50.852;-0.140;2022-07-19T06:00:46;6.35;;;5.60;;
19505;SDS011;9894;50.852;-0.140;2022-07-19T06:03:31;7.18;;;5.60;;
19505;SDS011;9894;50.852;-0.140;2022-07-19T06:05:57;6.25;;;5.57;;
19505;SDS011;9894;50.852;-0.140;2022-07-19T06:08:23;10.57;;;5.88;;
19505;SDS011;9894;50.852;-0.140;2022-07-19T06:10:49;9.10;;;5.35;;
19505;SDS011;9894;50.852;-0.140;2022-07-19T06:13:15;7.63;;;5.45;;
19505;SDS011;9894;50.852;-0.140;2022-07-19T06:15:42;6.78;;;5.78;;
19505;SDS011;9894;50.852;-0.140;2022-07-19T06:18:08;12.07;;;6.00;;
19505;SDS011;9894;50.852;-0.140;2022-07-19T06:20:34;9.52;;;5.88;;
19505;SDS011;9894;50.852;-0.140;2022-07-19T06:23:00;8.02;;;6.03;;
19505;SDS011;9894;50.852;-0.140;2022-07-19T06:25:26;6.82;;;6.00;;
19505;SDS011;9894;50.852;-0.140;2022-07-19T06:27:53;6.75;;;6.03;;
19505;SDS011;9894;50.852;-0.140;2022-07-19T06:30:19;6.65;;;5.93;;
19505;SDS011;9894;50.852;-0.140;2022-07-19T06:32:45;6.60;;;5.85;;
19505;SDS011;9894;50.852;-0.140;2022-07-19T06:35:11;6.70;;;6.10;;
19505;SDS011;9894;50.852;-0.140;2022-07-19T06:37:37;10.45;;;5.60;;
19505;SDS011;9894;50.852;-0.140;2022-07-19T06:40:03;9.45;;;5.93;;
19505;SDS011;9894;50.852;-0.140;2022-07-19T06:42:29;9.18;;;7.00;;
19505;SDS011;9894;50.852;-0.140;2022-07-19T06:44:56;8.23;;;6.32;;
19505;SDS011;9894;50.852;-0.140;2022-07-19T06:47:24;8.00;;;5.60;;
19505;SDS011;9894;50.852;-0.140;2022-07-19T06:49:50;6.78;;;6.05;;
19505;SDS011;9894;50.852;-0.140;2022-07-19T06:52:16;6.13;;;5.53;;
19505;SDS011;9894;50.852;-0.140;2022-07-19T06:54:42;9.63;;;5.70;;
19505;SDS011;9894;50.852;-0.140;2022-07-19T06:57:08;9.63;;;5.28;;
19505;SDS011;9894;50.852;-0.140;2022-07-19T06:59:34;8.45;;;5.88;;
19505;SDS011;9894;50.852;-0.140;2022-07-19T07:02:00;7.38;;;5.75;;
19505;SDS011;9894;50.852;-0.140;2022-07-19T07:04:27;8.60;;;5.57;;
19505;SDS011;9894;50.852;-0.140;2022-07-19T07:06:53;9.45;;;5.47;;
19505;SDS011;9894;50.852;-0.140;2022-07-19T07:09:19;8.90;;;5.85;;
19505;SDS011;9894;50.852;-0.140;2022-07-19T07:11:45;9.07;;;5.55;;
19505;SDS011;9894;50.852;-0.140;2022-07-19T07:14:11;9.30;;;6.28;;
19505;SDS011;9894;50.852;-0.140;2022-07-19T07:16:37;9.38;;;5.00;;
19505;SDS011;9894;50.852;-0.140;2022-07-19T07:19:04;10.48;;;6.47;;
19505;SDS011;9894;50.852;-0.140;2022-07-19T07:21:30;7.22;;;5.63;;
19505;SDS011;9894;50.852;-0.140;2022-07-19T07:24:00;7.78;;;5.70;;
19505;SDS011;9894;50.852;-0.140;2022-07-19T07:26:26;6.88;;;6.00;;
19505;SDS011;9894;50.852;-0.140;2022-07-19T07:28:53;9.07;;;6.00;;
19505;SDS011;9894;50.852;-0.140;2022-07-19T07:31:19;6.40;;;5.70;;
19505;SDS011;9894;50.852;-0.140;2022-07-19T07:33:45;7.45;;;5.47;;
19505;SDS011;9894;50.852;-0.140;2022-07-19T07:36:11;8.38;;;6.20;;
19505;SDS011;9894;50.852;-0.140;2022-07-19T07:38:37;10.02;;;5.75;;
19505;SDS011;9894;50.852;-0.140;2022-07-19T07:41:03;6.47;;;5.80;;
19505;SDS011;9894;50.852;-0.140;2022-07-19T07:43:30;8.82;;;6.15;;
19505;SDS011;9894;50.852;-0.140;2022-07-19T07:45:56;7.50;;;5.93;;
19505;SDS011;9894;50.852;-0.140;2022-07-19T07:48:22;10.88;;;6.50;;
19505;SDS011;9894;50.852;-0.140;2022-07-19T07:50:48;6.32;;;5.72;;
19505;SDS011;9894;50.852;-0.140;2022-07-19T07:53:15;12.13;;;6.53;;
19505;SDS011;9894;50.852;-0.140;2022-07-19T07:55:41;7.43;;;5.85;;
19505;SDS011;9894;50.852;-0.140;2022-07-19T07:58:08;9.50;;;5.97;;
19505;SDS011;9894;50.852;-0.140;2022-07-19T08:00:34;9.73;;;6.30;;
19505;SDS011;9894;50.852;-0.140;2022-07-19T08:03:00;8.52;;;6.45;;
19505;SDS011;9894;50.852;-0.140;2022-07-19T08:05:26;10.00;;;6.40;;
19505;SDS011;9894;50.852;-0.140;2022-07-19T08:07:53;7.32;;;5.63;;
19505;SDS011;9894;50.852;-0.140;2022-07-19T08:10:20;9.02;;;5.55;;
19505;SDS011;9894;50.852;-0.140;2022-07-19T08:12:46;8.93;;;6.00;;
19505;SDS011;9894;50.852;-0.140;2022-07-19T08:15:12;7.50;;;6.80;;
19505;SDS011;9894;50.852;-0.140;2022-07-19T08:17:38;7.32;;;6.63;;
19505;SDS011;9894;50.852;-0.140;2022-07-19T08:20:05;7.72;;;5.65;;
19505;SDS011;9894;50.852;-0.140;2022-07-19T08:22:31;9.77;;;6.80;;
19505;SDS011;9894;50.852;-0.140;2022-07-19T08:24:57;10.70;;;6.40;;
19505;SDS011;9894;50.852;-0.140;2022-07-19T08:27:23;9.15;;;6.60;;
19505;SDS011;9894;50.852;-0.140;2022-07-19T08:29:49;7.03;;;5.93;;
19505;SDS011;9894;50.852;-0.140;2022-07-19T08:32:16;8.07;;;6.43;;
19505;SDS011;9894;50.852;-0.140;2022-07-19T08:34:42;11.55;;;6.53;;
19505;SDS011;9894;50.852;-0.140;2022-07-19T08:37:08;8.88;;;6.10;;
19505;SDS011;9894;50.852;-0.140;2022-07-19T08:39:34;10.10;;;6.80;;
19505;SDS011;9894;50.852;-0.140;2022-07-19T08:42:00;11.63;;;6.35;;
19505;SDS011;9894;50.852;-0.140;2022-07-19T08:44:27;8.10;;;7.10;;
19505;SDS011;9894;50.852;-0.140;2022-07-19T08:46:54;12.20;;;6.88;;
19505;SDS011;9894;50.852;-0.140;2022-07-19T08:49:20;9.93;;;6.20;;
19505;SDS011;9894;50.852;-0.140;2022-07-19T08:51:47;8.48;;;6.07;;
19505;SDS011;9894;50.852;-0.140;2022-07-19T08:54:14;8.90;;;6.13;;
19505;SDS011;9894;50.852;-0.140;2022-07-19T08:56:40;8.02;;;6.20;;
19505;SDS011;9894;50.852;-0.140;2022-07-19T08:59:25;8.43;;;6.25;;
19505;SDS011;9894;50.852;-0.140;2022-07-19T09:01:51;8.73;;;6.63;;
19505;SDS011;9894;50.852;-0.140;2022-07-19T09:04:18;8.73;;;6.60;;
19505;SDS011;9894;50.852;-0.140;2022-07-19T09:06:48;10.75;;;6.40;;
19505;SDS011;9894;50.852;-0.140;2022-07-19T09:09:16;9.20;;;6.30;;
19505;SDS011;9894;50.852;-0.140;2022-07-19T09:11:44;7.95;;;6.55;;
19505;SDS011;9894;50.852;-0.140;2022-07-19T09:14:14;8.77;;;6.70;;
19505;SDS011;9894;50.852;-0.140;2022-07-19T09:16:57;8.77;;;6.50;;
19505;SDS011;9894;50.852;-0.140;2022-07-19T09:19:26;10.73;;;6.93;;
19505;SDS011;9894;50.852;-0.140;2022-07-19T09:24:20;6.70;;;6.10;;
19505;SDS011;9894;50.852;-0.140;2022-07-19T09:29:27;10.98;;;7.05;;
19505;SDS011;9894;50.852;-0.140;2022-07-19T09:32:13;9.40;;;7.00;;
19505;SDS011;9894;50.852;-0.140;2022-07-19T09:34:42;9.02;;;6.90;;
19505;SDS011;9894;50.852;-0.140;2022-07-19T09:39:34;10.38;;;6.68;;
19505;SDS011;9894;50.852;-0.140;2022-07-19T09:42:00;9.18;;;6.60;;
19505;SDS011;9894;50.852;-0.140;2022-07-19T09:44:29;9.20;;;7.57;;
19505;SDS011;9894;50.852;-0.140;2022-07-19T09:46:56;9.88;;;6.55;;
19505;SDS011;9894;50.852;-0.140;2022-07-19T09:49:22;9.68;;;6.80;;
19505;SDS011;9894;50.852;-0.140;2022-07-19T09:51:49;7.75;;;5.90;;
19505;SDS011;9894;50.852;-0.140;2022-07-19T09:54:16;10.10;;;6.63;;
19505;SDS011;9894;50.852;-0.140;2022-07-19T09:56:43;9.63;;;6.55;;
19505;SDS011;9894;50.852;-0.140;2022-07-19T09:59:10;11.00;;;7.13;;
19505;SDS011;9894;50.852;-0.140;2022-07-19T10:01:36;15.90;;;7.53;;
19505;SDS011;9894;50.852;-0.140;2022-07-19T10:04:13;9.23;;;6.20;;
19505;SDS011;9894;50.852;-0.140;2022-07-19T10:06:40;11.63;;;6.82;;
19505;SDS011;9894;50.852;-0.140;2022-07-19T10:09:07;7.25;;;6.25;;
19505;SDS011;9894;50.852;-0.140;2022-07-19T10:11:34;11.60;;;6.50;;
19505;SDS011;9894;50.852;-0.140;2022-07-19T10:14:01;11.07;;;7.00;;
19505;SDS011;9894;50.852;-0.140;2022-07-19T10:19:05;9.55;;;6.65;;
19505;SDS011;9894;50.852;-0.140;2022-07-19T10:21:34;9.25;;;6.07;;
19505;SDS011;9894;50.852;-0.140;2022-07-19T10:24:01;7.80;;;6.38;;
19505;SDS011;9894;50.852;-0.140;2022-07-19T10:26:37;11.45;;;6.72;;
19505;SDS011;9894;50.852;-0.140;2022-07-19T10:29:08;9.15;;;6.70;;
19505;SDS011;9894;50.852;-0.140;2022-07-19T10:31:34;9.52;;;6.80;;
19505;SDS011;9894;50.852;-0.140;2022-07-19T10:34:02;8.50;;;7.00;;
19505;SDS011;9894;50.852;-0.140;2022-07-19T10:36:44;10.00;;;6.60;;
19505;SDS011;9894;50.852;-0.140;2022-07-19T10:44:30;11.68;;;6.80;;
19505;SDS011;9894;50.852;-0.140;2022-07-19T10:46:56;8.88;;;6.85;;
19505;SDS011;9894;50.852;-0.140;2022-07-19T10:49:41;9.63;;;6.35;;
19505;SDS011;9894;50.852;-0.140;2022-07-19T10:52:42;8.18;;;5.93;;
19505;SDS011;9894;50.852;-0.140;2022-07-19T10:57:43;7.15;;;6.45;;
19505;SDS011;9894;50.852;-0.140;2022-07-19T11:00:16;7.55;;;5.70;;
19505;SDS011;9894;50.852;-0.140;2022-07-19T11:02:43;10.80;;;6.97;;
19505;SDS011;9894;50.852;-0.140;2022-07-19T11:05:25;11.30;;;6.15;;
19505;SDS011;9894;50.852;-0.140;2022-07-19T11:07:52;6.78;;;5.72;;
19505;SDS011;9894;50.852;-0.140;2022-07-19T11:10:26;8.18;;;6.40;;
19505;SDS011;9894;50.852;-0.140;2022-07-19T11:12:53;13.00;;;7.00;;
19505;SDS011;9894;50.852;-0.140;2022-07-19T11:15:19;9.50;;;6.78;;
19505;SDS011;9894;50.852;-0.140;2022-07-19T11:20:17;7.57;;;6.65;;
19505;SDS011;9894;50.852;-0.140;2022-07-19T11:22:47;12.25;;;6.55;;
19505;SDS011;9894;50.852;-0.140;2022-07-19T11:25:14;10.10;;;6.93;;
19505;SDS011;9894;50.852;-0.140;2022-07-19T11:27:41;10.38;;;6.10;;
19505;SDS011;9894;50.852;-0.140;2022-07-19T11:30:08;9.25;;;6.75;;
19505;SDS011;9894;50.852;-0.140;2022-07-19T11:32:35;10.20;;;6.85;;
19505;SDS011;9894;50.852;-0.140;2022-07-19T11:35:03;11.02;;;6.82;;
19505;SDS011;9894;50.852;-0.140;2022-07-19T11:37:30;8.88;;;6.90;;
19505;SDS011;9894;50.852;-0.140;2022-07-19T11:39:56;9.75;;;6.78;;
19505;SDS011;9894;50.852;-0.140;2022-07-19T11:44:55;10.75;;;6.95;;
19505;SDS011;9894;50.852;-0.140;2022-07-19T11:47:21;10.75;;;7.38;;
19505;SDS011;9894;50.852;-0.140;2022-07-19T11:49:47;16.30;;;6.90;;
19505;SDS011;9894;50.852;-0.140;2022-07-19T11:52:13;9.93;;;6.70;;
19505;SDS011;9894;50.852;-0.140;2022-07-19T11:54:39;11.25;;;6.72;;
19505;SDS011;9894;50.852;-0.140;2022-07-19T11:57:22;11.35;;;7.22;;
19505;SDS011;9894;50.852;-0.140;2022-07-19T11:59:48;8.60;;;6.97;;
19505;SDS011;9894;50.852;-0.140;2022-07-19T12:02:15;10.38;;;6.90;;
19505;SDS011;9894;50.852;-0.140;2022-07-19T12:04:41;9.07;;;6.90;;
19505;SDS011;9894;50.852;-0.140;2022-07-19T12:07:07;8.70;;;6.53;;
19505;SDS011;9894;50.852;-0.140;2022-07-19T12:09:33;8.27;;;7.35;;
19505;SDS011;9894;50.852;-0.140;2022-07-19T12:11:59;9.95;;;6.30;;
19505;SDS011;9894;50.852;-0.140;2022-07-19T12:14:37;11.43;;;6.88;;
19505;SDS011;9894;50.852;-0.140;2022-07-19T12:17:15;10.30;;;7.00;;
19505;SDS011;9894;50.852;-0.140;2022-07-19T12:19:43;11.85;;;6.85;;
19505;SDS011;9894;50.852;-0.140;2022-07-19T12:22:25;13.07;;;7.50;;
19505;SDS011;9894;50.852;-0.140;2022-07-19T12:24:51;8.82;;;7.10;;
19505;SDS011;9894;50.852;-0.140;2022-07-19T12:27:17;13.88;;;6.75;;
19505;SDS011;9894;50.852;-0.140;2022-07-19T12:29:48;8.85;;;6.78;;
19505;SDS011;9894;50.852;-0.140;2022-07-19T12:32:16;8.88;;;6.53;;
19505;SDS011;9894;50.852;-0.140;2022-07-19T12:34:53;7.80;;;6.90;;
19505;SDS011;9894;50.852;-0.140;2022-07-19T12:37:25;8.38;;;6.72;;
19505;SDS011;9894;50.852;-0.140;2022-07-19T12:42:38;7.97;;;7.18;;
19505;SDS011;9894;50.852;-0.140;2022-07-19T12:45:05;8.32;;;6.95;;
19505;SDS011;9894;50.852;-0.140;2022-07-19T12:47:31;8.65;;;7.25;;
19505;SDS011;9894;50.852;-0.140;2022-07-19T12:49:58;12.40;;;7.45;;
19505;SDS011;9894;50.852;-0.140;2022-07-19T12:52:24;10.23;;;6.80;;
19505;SDS011;9894;50.852;-0.140;2022-07-19T12:54:50;9.07;;;7.07;;
19505;SDS011;9894;50.852;-0.140;2022-07-19T12:57:17;10.20;;;6.28;;
19505;SDS011;9894;50.852;-0.140;2022-07-19T12:59:43;8.60;;;6.38;;
19505;SDS011;9894;50.852;-0.140;2022-07-19T13:02:10;8.45;;;6.90;;
19505;SDS011;9894;50.852;-0.140;2022-07-19T13:04:36;9.30;;;6.90;;
19505;SDS011;9894;50.852;-0.140;2022-07-19T13:07:05;8.02;;;6.30;;
19505;SDS011;9894;50.852;-0.140;2022-07-19T13:09:31;7.65;;;6.90;;
19505;SDS011;9894;50.852;-0.140;2022-07-19T13:11:59;9.10;;;6.50;;
19505;SDS011;9894;50.852;-0.140;2022-07-19T13:14:25;9.68;;;6.22;;
19505;SDS011;9894;50.852;-0.140;2022-07-19T13:16:51;8.73;;;6.25;;
19505;SDS011;9894;50.852;-0.140;2022-07-19T13:19:18;12.50;;;6.70;;
19505;SDS011;9894;50.852;-0.140;2022-07-19T13:21:44;9.52;;;6.38;;
19505;SDS011;9894;50.852;-0.140;2022-07-19T13:24:10;8.32;;;6.20;;
19505;SDS011;9894;50.852;-0.140;2022-07-19T13:26:36;12.95;;;6.78;;
19505;SDS011;9894;50.852;-0.140;2022-07-19T13:29:03;9.35;;;5.90;;
19505;SDS011;9894;50.852;-0.140;2022-07-19T13:31:29;9.23;;;6.65;;
19505;SDS011;9894;50.852;-0.140;2022-07-19T13:33:55;8.90;;;5.80;;
19505;SDS011;9894;50.852;-0.140;2022-07-19T13:36:22;8.02;;;5.95;;
19505;SDS011;9894;50.852;-0.140;2022-07-19T13:38:48;9.07;;;6.20;;
19505;SDS011;9894;50.852;-0.140;2022-07-19T13:41:15;8.40;;;5.88;;
19505;SDS011;9894;50.852;-0.140;2022-07-19T13:43:42;7.20;;;6.32;;
19505;SDS011;9894;50.852;-0.140;2022-07-19T13:46:09;10.35;;;5.60;;
19505;SDS011;9894;50.852;-0.140;2022-07-19T13:48:36;10.07;;;5.85;;
19505;SDS011;9894;50.852;-0.140;2022-07-19T13:51:02;8.80;;;6.05;;
19505;SDS011;9894;50.852;-0.140;2022-07-19T13:53:28;11.07;;;5.85;;
19505;SDS011;9894;50.852;-0.140;2022-07-19T13:55:55;8.13;;;6.05;;
19505;SDS011;9894;50.852;-0.140;2022-07-19T13:58:21;13.05;;;7.00;;
19505;SDS011;9894;50.852;-0.140;2022-07-19T14:00:47;10.05;;;7.15;;
19505;SDS011;9894;50.852;-0.140;2022-07-19T14:03:14;9.55;;;7.10;;
19505;SDS011;9894;50.852;-0.140;2022-07-19T14:05:45;9.35;;;7.22;;
19505;SDS011;9894;50.852;-0.140;2022-07-19T14:08:11;7.13;;;6.32;;
19505;SDS011;9894;50.852;-0.140;2022-07-19T14:10:38;9.15;;;6.55;;
19505;SDS011;9894;50.852;-0.140;2022-07-19T14:13:04;7.20;;;6.40;;
19505;SDS011;9894;50.852;-0.140;2022-07-19T14:15:31;9.98;;;6.60;;
19505;SDS011;9894;50.852;-0.140;2022-07-19T14:17:57;8.77;;;6.80;;
19505;SDS011;9894;50.852;-0.140;2022-07-19T14:20:24;7.80;;;5.85;;
19505;SDS011;9894;50.852;-0.140;2022-07-19T14:22:50;7.80;;;6.47;;
19505;SDS011;9894;50.852;-0.140;2022-07-19T14:25:16;9.18;;;6.20;;
19505;SDS011;9894;50.852;-0.140;2022-07-19T14:27:43;13.15;;;6.78;;
19505;SDS011;9894;50.852;-0.140;2022-07-19T14:30:09;7.70;;;6.30;;
19505;SDS011;9894;50.852;-0.140;2022-07-19T14:32:35;6.93;;;6.22;;
19505;SDS011;9894;50.852;-0.140;2022-07-19T14:35:02;7.63;;;6.75;;
19505;SDS011;9894;50.852;-0.140;2022-07-19T14:37:28;7.93;;;6.35;;
19505;SDS011;9894;50.852;-0.140;2022-07-19T14:39:54;10.98;;;6.70;;
19505;SDS011;9894;50.852;-0.140;2022-07-19T14:42:21;13.77;;;7.20;;
19505;SDS011;9894;50.852;-0.140;2022-07-19T14:44:47;10.15;;;6.10;;
19505;SDS011;9894;50.852;-0.140;2022-07-19T14:47:13;9.18;;;6.40;;
19505;SDS011;9894;50.852;-0.140;2022-07-19T14:49:39;6.68;;;5.85;;
19505;SDS011;9894;50.852;-0.140;2022-07-19T14:52:05;9.05;;;6.10;;
19505;SDS011;9894;50.852;-0.140;2022-07-19T14:54:31;8.60;;;6.68;;
19505;SDS011;9894;50.852;-0.140;2022-07-19T14:56:58;10.02;;;6.63;;
19505;SDS011;9894;50.852;-0.140;2022-07-19T14:59:24;9.65;;;6.00;;
19505;SDS011;9894;50.852;-0.140;2022-07-19T15:01:51;8.45;;;7.00;;
19505;SDS011;9894;50.852;-0.140;2022-07-19T15:04:17;9.10;;;6.32;;
19505;SDS011;9894;50.852;-0.140;2022-07-19T15:06:44;7.38;;;6.63;;
19505;SDS011;9894;50.852;-0.140;2022-07-19T15:09:10;11.15;;;6.88;;
19505;SDS011;9894;50.852;-0.140;2022-07-19T15:11:37;11.10;;;7.10;;